Time;durP1;ratioP1;P1;durP2;ratioP2;P2;SDS_P1;SDS_P2;PMS_P1;PMS_P2;Temp;Humidity;BMP_temperature;BMP_pressure;BME280_temperature;BME280_humidity;BME280_pressure;Samples;Min_cycle;Max_cycle;Signal;HPM_P1;HPM_P2
2022/03/26 00:01:05;;;;;;;31.25;16.65;;;;;;;14.02;41.12;103048.50;5065866;28;20088;-59
2022/03/26 00:03:35;;;;;;;27.08;15.43;;;;;;;14.00;41.07;103050.56;5065852;28;20449;-60
2022/03/26 00:06:07;;;;;;;32.70;16.40;;;;;;;13.97;41.53;103035.56;5065423;28;20090;-60
2022/03/26 00:08:35;;;;;;;31.17;16.55;;;;;;;13.97;41.45;103049.06;5063878;28;20223;-61
2022/03/26 00:11:02;;;;;;;31.50;16.27;;;;;;;13.95;41.54;103051.13;5066102;28;20056;-61
2022/03/26 00:13:32;;;;;;;29.30;16.13;;;;;;;13.94;41.43;103057.56;5065343;28;20079;-61
2022/03/26 00:16:00;;;;;;;24.20;15.95;;;;;;;13.93;41.62;103058.59;5066418;28;20053;-60
2022/03/26 00:18:28;;;;;;;28.60;15.38;;;;;;;13.90;41.42;103053.56;5062098;28;20048;-61
2022/03/26 00:20:56;;;;;;;29.60;15.27;;;;;;;13.89;41.75;103053.75;5064898;28;20049;-61
2022/03/26 00:23:24;;;;;;;27.15;16.10;;;;;;;13.87;41.55;103050.41;5057132;28;20045;-60
2022/03/26 00:25:51;;;;;;;28.55;14.40;;;;;;;13.86;41.47;103048.75;5058977;28;20059;-61
2022/03/26 00:28:19;;;;;;;29.33;16.05;;;;;;;13.83;41.97;103041.88;5065148;28;20084;-60
2022/03/26 00:30:48;;;;;;;30.02;17.15;;;;;;;13.83;42.10;103044.56;5065329;28;20064;-61
2022/03/26 00:33:16;;;;;;;24.40;15.77;;;;;;;13.81;41.63;103035.81;5065232;28;20063;-60
2022/03/26 00:35:44;;;;;;;27.00;15.88;;;;;;;13.80;41.96;103044.94;5063773;28;20041;-60
2022/03/26 00:38:11;;;;;;;31.08;16.20;;;;;;;13.79;41.99;103045.13;5065228;28;20647;-61
2022/03/26 00:40:40;;;;;;;30.25;16.65;;;;;;;13.78;41.75;103049.69;5065263;28;20045;-60
2022/03/26 00:43:08;;;;;;;34.63;16.98;;;;;;;13.76;41.94;103043.66;5052110;28;20088;-60
2022/03/26 00:45:36;;;;;;;34.75;16.67;;;;;;;13.76;41.88;103048.22;5059247;28;20382;-60
2022/03/26 00:48:06;;;;;;;28.48;16.73;;;;;;;13.75;42.20;103041.13;5049176;28;20123;-61
2022/03/26 00:50:34;;;;;;;29.25;15.95;;;;;;;13.74;42.06;103044.88;5045575;28;20052;-61
2022/03/26 00:53:01;;;;;;;34.33;15.80;;;;;;;13.70;42.24;103039.00;5056510;28;20144;-61
2022/03/26 00:55:29;;;;;;;29.80;16.48;;;;;;;13.73;41.81;103043.19;5066014;28;20072;-60
2022/03/26 00:57:57;;;;;;;28.58;16.08;;;;;;;13.70;41.89;103041.69;5063675;28;20207;-61
2022/03/26 01:00:25;;;;;;;33.00;16.45;;;;;;;13.70;42.37;103038.16;5065237;28;20045;-61
2022/03/26 01:02:52;;;;;;;27.35;16.73;;;;;;;13.68;42.50;103041.06;5064268;28;20466;-61
2022/03/26 01:05:22;;;;;;;25.40;15.45;;;;;;;13.66;42.03;103043.94;5064696;28;20071;-61
2022/03/26 01:07:52;;;;;;;28.27;16.13;;;;;;;13.64;42.33;103037.88;5061937;28;20080;-61
2022/03/26 01:10:19;;;;;;;30.77;16.58;;;;;;;13.63;42.22;103036.22;5064692;28;20041;-60
2022/03/26 01:12:47;;;;;;;32.92;16.73;;;;;;;13.62;42.25;103031.00;5075577;28;20117;-61
2022/03/26 01:15:15;;;;;;;32.13;15.02;;;;;;;13.61;42.49;103032.03;5058456;28;20053;-60
2022/03/26 01:17:43;;;;;;;26.08;15.45;;;;;;;13.60;42.66;103030.34;5063046;28;20065;-61
2022/03/26 01:20:11;;;;;;;28.75;17.02;;;;;;;13.60;42.17;103035.75;5067573;28;20521;-60
2022/03/26 01:22:40;;;;;;;32.10;15.98;;;;;;;13.59;42.33;103034.06;5044730;28;20045;-60
2022/03/26 01:25:08;;;;;;;32.10;16.67;;;;;;;13.56;42.64;103026.34;5063246;28;20247;-60
2022/03/26 01:27:36;;;;;;;28.92;16.08;;;;;;;13.53;42.50;103032.97;5064183;28;20049;-60
2022/03/26 01:30:05;;;;;;;29.52;16.38;;;;;;;13.52;42.86;103030.44;5068095;28;20104;-60
2022/03/26 01:32:33;;;;;;;29.27;16.10;;;;;;;13.48;42.62;103021.88;5063850;28;20483;-60
2022/03/26 01:35:01;;;;;;;31.23;17.42;;;;;;;13.48;43.01;103032.69;5063635;28;20072;-60
2022/03/26 01:37:29;;;;;;;29.65;16.52;;;;;;;13.47;42.95;103022.06;5057863;28;20083;-61
2022/03/26 01:39:58;;;;;;;25.15;15.23;;;;;;;13.44;42.96;103017.88;5061639;28;20076;-60
2022/03/26 01:42:26;;;;;;;25.08;16.58;;;;;;;13.42;42.97;103030.72;5054112;28;20050;-60
2022/03/26 01:44:53;;;;;;;29.42;17.95;;;;;;;13.40;42.76;103030.09;5052025;28;20245;-60
2022/03/26 01:47:21;;;;;;;27.42;15.70;;;;;;;13.38;42.91;103018.63;5056002;28;20049;-60
2022/03/26 01:49:50;;;;;;;24.52;15.77;;;;;;;13.37;42.88;103026.91;5055559;28;20544;-60
2022/03/26 01:52:18;;;;;;;27.20;15.73;;;;;;;13.35;43.17;103019.00;5056780;28;20072;-60
2022/03/26 01:54:46;;;;;;;37.10;17.90;;;;;;;13.34;42.99;103028.13;5048437;28;20068;-59
2022/03/26 01:57:15;;;;;;;33.67;16.42;;;;;;;13.32;42.98;103024.78;5070116;28;20534;-60
2022/03/26 01:59:43;;;;;;;28.45;16.05;;;;;;;13.31;43.34;103026.66;5063042;28;20087;-59
2022/03/26 02:02:11;;;;;;;30.77;17.10;;;;;;;13.29;43.30;103038.66;5058694;28;20156;-60
2022/03/26 02:04:39;;;;;;;27.05;16.77;;;;;;;13.27;43.28;103044.25;5063473;28;20088;-59
2022/03/26 02:07:07;;;;;;;29.17;16.83;;;;;;;13.25;43.29;103043.59;5050864;28;20128;-60
2022/03/26 02:09:35;;;;;;;30.52;17.58;;;;;;;13.21;43.65;103050.38;5043239;28;20050;-60
2022/03/26 02:12:21;;;;;;;33.63;18.48;;;;;;;13.20;43.60;103037.06;5061450;28;20044;-61
2022/03/26 02:14:50;;;;;;;29.85;17.65;;;;;;;13.18;43.53;103042.66;5051479;28;20056;-59
2022/03/26 02:17:18;;;;;;;28.05;16.73;;;;;;;13.18;43.58;103036.41;5062767;28;20084;-60
2022/03/26 02:19:49;;;;;;;32.17;17.20;;;;;;;13.13;43.65;103033.41;5071447;28;20048;-60
2022/03/26 02:22:17;;;;;;;33.30;16.40;;;;;;;13.13;43.50;103034.25;5063395;28;20450;-61
2022/03/26 02:24:45;;;;;;;33.97;17.13;;;;;;;13.16;43.59;103033.91;5061562;28;20045;-60
2022/03/26 02:27:17;;;;;;;31.17;18.73;;;;;;;13.16;43.38;103042.00;5062521;28;20054;-61
2022/03/26 02:29:45;;;;;;;35.85;17.42;;;;;;;13.14;43.67;103040.47;5062630;28;20067;-62
2022/03/26 02:32:12;;;;;;;32.75;17.52;;;;;;;13.13;43.59;103030.69;5061172;28;20167;-61
2022/03/26 02:34:40;;;;;;;28.95;17.10;;;;;;;13.11;43.83;103036.28;5061826;28;20071;-60
2022/03/26 02:37:28;;;;;;;28.87;17.40;;;;;;;13.10;43.55;103031.06;5061244;28;20053;-60
2022/03/26 02:39:56;;;;;;;39.28;17.88;;;;;;;13.08;43.65;103027.72;5061815;28;20048;-61
2022/03/26 02:42:24;;;;;;;30.90;16.95;;;;;;;13.07;43.85;103037.69;5061225;28;20089;-60
2022/03/26 02:44:52;;;;;;;29.33;16.58;;;;;;;13.06;43.84;103035.16;5053182;28;20053;-60
2022/03/26 02:47:19;;;;;;;30.60;17.20;;;;;;;13.01;43.44;103033.84;5063858;28;20049;-61
2022/03/26 02:49:47;;;;;;;32.42;17.88;;;;;;;13.02;43.76;103023.91;5062035;28;20041;-61
2022/03/26 02:52:15;;;;;;;30.48;18.08;;;;;;;13.03;43.88;103031.81;5060824;28;20059;-60
2022/03/26 02:54:44;;;;;;;33.10;18.00;;;;;;;13.01;43.90;103033.00;5060042;28;20076;-61
2022/03/26 02:57:12;;;;;;;33.50;16.70;;;;;;;12.99;43.78;103032.38;5062170;28;20044;-61
2022/03/26 02:59:39;;;;;;;29.02;16.60;;;;;;;12.98;44.06;103033.38;5061876;28;20088;-60
2022/03/26 03:02:09;;;;;;;28.88;16.73;;;;;;;12.96;43.96;103028.16;5063013;28;20080;-60
2022/03/26 03:04:38;;;;;;;35.88;18.38;;;;;;;12.94;44.34;103032.06;5057747;28;20061;-60
2022/03/26 03:07:06;;;;;;;28.17;16.80;;;;;;;12.91;44.12;103019.78;5049654;28;20049;-61
2022/03/26 03:09:33;;;;;;;29.80;17.75;;;;;;;12.89;44.28;103029.09;5054248;28;20096;-61
2022/03/26 03:12:03;;;;;;;34.45;18.08;;;;;;;12.87;44.43;103025.75;5062955;28;20052;-61
2022/03/26 03:14:30;;;;;;;34.42;17.40;;;;;;;12.85;44.34;103025.91;5061003;28;20152;-61
2022/03/26 03:16:58;;;;;;;37.05;17.15;;;;;;;12.84;44.36;103034.19;5051246;28;20046;-61
2022/03/26 03:19:26;;;;;;;30.02;16.30;;;;;;;12.82;44.19;103028.16;5061262;28;20140;-59
2022/03/26 03:21:54;;;;;;;29.48;16.50;;;;;;;12.81;44.31;103030.00;5060800;28;20493;-59
2022/03/26 03:24:21;;;;;;;33.20;17.15;;;;;;;12.80;44.40;103030.19;5061572;28;20088;-59
2022/03/26 03:26:49;;;;;;;32.95;17.60;;;;;;;12.78;44.41;103037.63;5059960;28;20131;-59
2022/03/26 03:29:18;;;;;;;28.52;15.85;;;;;;;12.78;44.26;103037.63;5062048;28;20049;-59
2022/03/26 03:31:48;;;;;;;39.13;18.20;;;;;;;12.75;44.46;103033.44;5053215;28;20053;-59
2022/03/26 03:34:16;;;;;;;37.80;17.88;;;;;;;12.74;44.70;103039.84;5059148;28;20073;-61
2022/03/26 03:36:43;;;;;;;27.95;17.15;;;;;;;12.71;44.59;103032.97;5058321;28;20045;-61
2022/03/26 03:39:11;;;;;;;29.02;18.02;;;;;;;12.70;44.50;103033.16;5062024;28;20072;-61
2022/03/26 03:41:39;;;;;;;30.05;16.77;;;;;;;12.69;44.59;103034.16;5066126;28;20049;-60
2022/03/26 03:44:07;;;;;;;30.90;17.90;;;;;;;12.67;44.57;103030.81;5066076;28;20076;-60
2022/03/26 03:46:36;;;;;;;26.50;17.50;;;;;;;12.67;44.58;103028.13;5069127;28;20045;-60
2022/03/26 03:49:04;;;;;;;34.13;17.70;;;;;;;12.67;44.72;103028.94;5065858;28;20049;-61
2022/03/26 03:51:32;;;;;;;29.23;18.85;;;;;;;12.66;44.43;103029.13;5051404;28;20121;-62
2022/03/26 03:54:00;;;;;;;29.77;16.38;;;;;;;12.66;44.72;103027.28;5065219;28;20077;-60
2022/03/26 03:56:27;;;;;;;28.95;17.20;;;;;;;12.65;44.71;103030.16;5065376;28;20514;-60
2022/03/26 03:58:56;;;;;;;27.50;15.68;;;;;;;12.65;44.74;103035.56;5064658;28;20045;-59
2022/03/26 04:01:23;;;;;;;34.00;18.70;;;;;;;12.64;44.58;103031.19;5065752;28;20072;-61
2022/03/26 04:03:53;;;;;;;27.85;16.55;;;;;;;12.62;44.62;103033.22;5064272;28;20109;-59
2022/03/26 04:06:21;;;;;;;29.05;17.27;;;;;;;12.62;44.69;103038.63;5065158;28;20057;-62
2022/03/26 04:08:48;;;;;;;35.47;18.55;;;;;;;12.60;44.75;103043.34;5060919;28;20045;-61
2022/03/26 04:11:16;;;;;;;33.22;16.88;;;;;;;12.56;44.86;103037.47;5074522;28;20072;-59
2022/03/26 04:13:46;;;;;;;38.40;18.30;;;;;;;12.54;44.83;103042.22;5066352;28;20107;-60
2022/03/26 04:16:14;;;;;;;39.55;18.35;;;;;;;12.52;44.95;103048.81;5065585;28;20045;-59
2022/03/26 04:18:42;;;;;;;32.53;17.65;;;;;;;12.49;45.03;103046.47;5061731;28;20080;-60
2022/03/26 04:21:11;;;;;;;37.47;17.92;;;;;;;12.47;45.22;103046.66;5051727;28;20046;-61
2022/03/26 04:23:39;;;;;;;33.58;17.63;;;;;;;12.47;45.09;103059.31;5064956;28;20084;-61
2022/03/26 04:26:07;;;;;;;28.95;17.70;;;;;;;12.41;45.02;103046.53;5065799;28;20072;-61
2022/03/26 04:28:35;;;;;;;29.92;17.27;;;;;;;12.42;45.11;103046.38;5064342;28;20048;-60
2022/03/26 04:31:04;;;;;;;32.65;17.67;;;;;;;12.42;45.29;103048.22;5058045;28;20056;-60
2022/03/26 04:33:32;;;;;;;31.90;17.30;;;;;;;12.42;45.29;103050.91;5047816;28;20132;-61
2022/03/26 04:36:00;;;;;;;28.83;16.02;;;;;;;12.42;45.20;103048.22;5061449;28;20052;-61
2022/03/26 04:38:29;;;;;;;35.50;17.02;;;;;;;12.39;45.28;103052.94;5062201;28;20075;-60
2022/03/26 04:40:57;;;;;;;26.83;17.83;;;;;;;12.38;45.03;103050.44;5054790;28;20069;-60
2022/03/26 04:43:24;;;;;;;33.65;17.50;;;;;;;12.37;45.22;103037.97;5061423;28;20096;-61
2022/03/26 04:45:52;;;;;;;28.08;17.58;;;;;;;12.36;45.20;103041.69;5071517;28;20076;-60
2022/03/26 04:48:20;;;;;;;29.52;17.50;;;;;;;12.34;45.14;103047.25;5051491;28;20058;-60
2022/03/26 04:50:47;;;;;;;27.92;16.70;;;;;;;12.33;45.23;103042.88;5065214;28;20081;-60
2022/03/26 04:53:15;;;;;;;26.80;16.40;;;;;;;12.32;45.12;103048.47;5050281;28;20049;-61
2022/03/26 04:55:44;;;;;;;31.35;17.52;;;;;;;12.31;45.25;103047.63;5063993;28;20073;-60
2022/03/26 04:58:12;;;;;;;32.85;17.48;;;;;;;12.28;45.25;103042.59;5058469;28;20160;-61
2022/03/26 05:00:40;;;;;;;30.48;16.98;;;;;;;12.29;44.86;103043.41;5054005;28;20060;-61
2022/03/26 05:03:08;;;;;;;34.70;17.33;;;;;;;12.27;45.17;103037.38;5064892;28;20045;-59
2022/03/26 05:05:36;;;;;;;35.83;17.75;;;;;;;12.27;45.24;103043.59;5056596;28;20053;-61
2022/03/26 05:08:04;;;;;;;27.55;18.00;;;;;;;12.27;45.19;103035.50;5062047;28;20087;-60
2022/03/26 05:10:32;;;;;;;36.65;18.13;;;;;;;12.26;45.26;103036.53;5074403;28;20080;-60
2022/03/26 05:13:01;;;;;;;28.77;16.58;;;;;;;12.25;45.21;103034.84;5067164;28;20081;-60
2022/03/26 05:15:29;;;;;;;30.73;17.23;;;;;;;12.25;45.36;103044.81;5065181;28;20076;-59
2022/03/26 05:17:58;;;;;;;27.27;16.45;;;;;;;12.24;45.37;103035.03;5055270;28;20140;-60
2022/03/26 05:20:26;;;;;;;35.65;17.48;;;;;;;12.23;45.28;103047.69;5072541;28;20048;-60
2022/03/26 05:22:54;;;;;;;30.45;16.85;;;;;;;12.22;45.44;103042.47;5062721;28;20167;-61
2022/03/26 05:25:22;;;;;;;31.88;17.15;;;;;;;12.19;45.20;103037.44;5063991;28;20510;-59
2022/03/26 05:27:51;;;;;;;35.33;16.83;;;;;;;12.19;45.33;103045.50;5064567;28;20085;-59
2022/03/26 05:30:22;;;;;;;31.70;16.92;;;;;;;12.19;45.32;103045.50;5066243;28;20080;-58
2022/03/26 05:32:49;;;;;;;26.55;16.90;;;;;;;12.19;45.19;103059.00;5064476;28;20081;-60
2022/03/26 05:35:18;;;;;;;30.00;15.98;;;;;;;12.19;45.13;103057.13;5064460;28;20044;-59
2022/03/26 05:37:50;;;;;;;29.65;16.45;;;;;;;12.18;45.16;103051.94;5062168;28;20060;-60
2022/03/26 05:40:20;;;;;;;27.90;17.08;;;;;;;12.16;45.37;103062.03;5061282;28;20072;-60
2022/03/26 05:42:49;;;;;;;28.55;16.30;;;;;;;12.15;45.41;103060.38;5058156;28;20048;-60
2022/03/26 05:45:17;;;;;;;31.88;16.65;;;;;;;12.13;45.50;103068.66;5063754;28;20048;-60
2022/03/26 05:47:48;;;;;;;28.92;17.08;;;;;;;12.10;45.36;103078.97;5063630;28;20056;-60
2022/03/26 05:50:16;;;;;;;31.15;17.10;;;;;;;12.06;45.49;103073.09;5063193;28;20502;-59
2022/03/26 05:52:44;;;;;;;31.05;16.90;;;;;;;12.03;45.27;103079.66;5062453;28;20079;-60
2022/03/26 05:55:12;;;;;;;33.95;17.45;;;;;;;12.00;45.82;103076.50;5064603;28;20079;-60
2022/03/26 05:57:40;;;;;;;30.95;17.20;;;;;;;11.98;45.75;103087.44;5061841;28;20067;-60
2022/03/26 06:00:10;;;;;;;31.70;16.60;;;;;;;11.96;45.74;103081.38;5064312;28;20056;-60
2022/03/26 06:02:38;;;;;;;32.75;17.52;;;;;;;11.97;45.58;103085.75;5063056;28;20072;-60
2022/03/26 06:05:08;;;;;;;36.30;18.02;;;;;;;11.97;45.67;103090.31;5063704;28;20071;-60
2022/03/26 06:07:37;;;;;;;30.17;16.95;;;;;;;11.95;45.70;103095.88;5060000;28;20076;-60
2022/03/26 06:10:12;;;;;;;33.64;17.56;;;;;;;11.94;45.76;103104.97;4971501;28;10000982;-59
2022/03/26 06:12:43;;;;;;;34.22;16.15;;;;;;;11.94;45.77;103107.69;5058605;28;20281;-60
2022/03/26 06:15:11;;;;;;;31.08;17.63;;;;;;;11.94;45.72;103109.53;5059357;28;20051;-60
2022/03/26 06:17:58;;;;;;;31.00;17.92;;;;;;;11.90;45.81;103109.03;5052325;28;20045;-60
2022/03/26 06:20:28;;;;;;;35.08;18.30;;;;;;;11.88;45.76;103108.38;5059653;28;20120;-60
2022/03/26 06:22:55;;;;;;;34.15;17.00;;;;;;;11.84;45.84;103107.03;5054229;28;20075;-60
2022/03/26 06:25:26;;;;;;;29.40;15.82;;;;;;;11.83;45.93;103109.91;5065433;28;20108;-60
2022/03/26 06:27:54;;;;;;;31.00;17.17;;;;;;;11.82;46.00;103105.53;5054175;28;20076;-60
2022/03/26 06:30:21;;;;;;;31.65;16.85;;;;;;;11.83;45.95;103109.91;5046382;28;20230;-60
2022/03/26 06:32:49;;;;;;;31.20;17.27;;;;;;;11.85;45.92;103099.81;5058619;28;20049;-62
2022/03/26 06:35:17;;;;;;;28.98;16.40;;;;;;;11.84;45.82;103090.03;5059000;28;20087;-61
2022/03/26 06:37:46;;;;;;;32.60;17.88;;;;;;;11.89;45.80;103101.97;5057777;28;20049;-61
2022/03/26 06:40:14;;;;;;;27.85;16.70;;;;;;;11.92;45.80;103104.31;5054756;28;20084;-62
2022/03/26 06:42:42;;;;;;;33.47;17.00;;;;;;;11.93;45.66;103111.38;5056857;28;20084;-62
2022/03/26 06:45:15;;;;;;;34.63;17.52;;;;;;;11.95;45.71;103109.34;5061745;28;20072;-62
2022/03/26 06:47:44;;;;;;;30.40;17.13;;;;;;;11.98;45.76;103117.09;5059281;28;20122;-63
2022/03/26 06:50:11;;;;;;;32.50;18.02;;;;;;;12.00;45.70;103109.66;5056445;28;20494;-62
2022/03/26 06:52:39;;;;;;;38.40;16.60;;;;;;;12.01;45.55;103116.75;5054774;28;20136;-59
2022/03/26 06:55:09;;;;;;;28.65;15.57;;;;;;;12.00;45.50;103117.75;5059265;28;20076;-59
2022/03/26 06:57:38;;;;;;;28.67;15.73;;;;;;;12.01;45.42;103121.28;5057970;28;20121;-59
2022/03/26 07:00:09;;;;;;;30.70;15.88;;;;;;;12.01;45.45;103126.69;5057927;28;20073;-60
2022/03/26 07:02:37;;;;;;;31.63;16.20;;;;;;;11.99;45.49;103129.53;5053003;28;20087;-60
2022/03/26 07:05:06;;;;;;;34.05;16.73;;;;;;;11.97;45.50;103128.88;5055165;28;20045;-59
2022/03/26 07:07:33;;;;;;;28.30;17.58;;;;;;;12.02;45.66;103139.97;5055809;28;20046;-58
2022/03/26 07:10:02;;;;;;;32.97;16.58;;;;;;;12.02;45.62;103136.44;5059706;28;20045;-58
2022/03/26 07:12:31;;;;;;;29.20;16.48;;;;;;;12.02;45.58;103137.28;5060191;28;20114;-59
2022/03/26 07:14:59;;;;;;;29.80;15.82;;;;;;;12.06;45.66;103137.78;5058070;28;20103;-60
2022/03/26 07:17:26;;;;;;;32.30;15.80;;;;;;;12.05;45.54;103139.63;5061419;28;20115;-60
2022/03/26 07:19:54;;;;;;;29.67;16.80;;;;;;;12.07;45.63;103136.75;5062370;28;20487;-60
2022/03/26 07:22:22;;;;;;;31.00;17.15;;;;;;;12.09;45.84;103141.97;5057341;28;20084;-60
2022/03/26 07:24:49;;;;;;;34.97;17.40;;;;;;;12.10;45.79;103132.88;5048308;28;20113;-61
2022/03/26 07:27:17;;;;;;;29.33;16.10;;;;;;;12.13;45.59;103136.06;5062493;28;20108;-60
2022/03/26 07:29:48;;;;;;;35.45;15.63;;;;;;;12.13;45.61;103135.22;5062179;28;20049;-60
2022/03/26 07:32:16;;;;;;;30.98;16.88;;;;;;;12.15;45.58;103135.84;5062696;28;20099;-61
2022/03/26 07:34:44;;;;;;;31.67;15.45;;;;;;;12.16;45.53;103132.13;5062111;28;20222;-59
2022/03/26 07:37:12;;;;;;;31.40;17.10;;;;;;;12.16;45.66;103130.28;5060157;28;20057;-59
2022/03/26 07:39:39;;;;;;;31.02;16.38;;;;;;;12.18;45.45;103135.50;5058913;28;20478;-59
2022/03/26 07:42:07;;;;;;;29.23;14.98;;;;;;;12.07;45.69;103119.75;5053029;28;20087;-59
2022/03/26 07:44:35;;;;;;;26.60;14.95;;;;;;;12.19;45.65;103137.19;5053269;28;20194;-60
2022/03/26 07:47:05;;;;;;;31.63;16.02;;;;;;;12.20;45.55;103146.94;5057786;28;20068;-59
2022/03/26 07:49:33;;;;;;;32.22;16.60;;;;;;;12.20;45.52;103146.94;5058707;28;20052;-59
2022/03/26 07:52:01;;;;;;;25.27;14.82;;;;;;;12.21;45.81;103152.16;5052718;28;20660;-59
2022/03/26 07:54:28;;;;;;;24.00;13.50;;;;;;;12.22;45.54;103150.31;5051265;28;20080;-59
2022/03/26 07:56:56;;;;;;;29.17;15.13;;;;;;;12.22;45.48;103159.22;5057539;28;20090;-59
2022/03/26 07:59:24;;;;;;;26.40;15.10;;;;;;;12.24;45.48;103153.66;5059341;28;20083;-58
2022/03/26 08:01:52;;;;;;;27.65;14.77;;;;;;;12.24;45.54;103159.88;5061399;28;20088;-59
2022/03/26 08:04:21;;;;;;;27.10;15.25;;;;;;;12.24;45.63;103159.06;5057123;28;20405;-59
2022/03/26 08:06:49;;;;;;;24.13;14.90;;;;;;;12.24;45.88;103156.34;5059045;28;20111;-59
2022/03/26 08:09:18;;;;;;;27.45;15.38;;;;;;;12.24;45.72;103162.59;5054340;28;20106;-59
2022/03/26 08:11:46;;;;;;;24.55;14.32;;;;;;;12.24;45.73;103150.97;5058852;28;20052;-60
2022/03/26 08:14:14;;;;;;;21.85;14.18;;;;;;;12.24;45.78;103156.34;5056249;28;20040;-59
2022/03/26 08:16:41;;;;;;;31.58;15.65;;;;;;;12.24;45.53;103165.28;5055067;28;20072;-60
2022/03/26 08:19:09;;;;;;;28.02;13.65;;;;;;;12.23;45.79;103163.59;5058633;28;20203;-59
2022/03/26 08:21:38;;;;;;;32.85;15.32;;;;;;;12.24;45.99;103162.59;5063439;28;20113;-59
2022/03/26 08:24:07;;;;;;;24.88;13.18;;;;;;;12.26;46.00;103157.03;5071369;28;20055;-59
2022/03/26 08:26:37;;;;;;;24.15;14.82;;;;;;;12.26;46.01;103159.72;5060294;28;20063;-59
2022/03/26 08:29:05;;;;;;;27.33;14.70;;;;;;;12.27;46.10;103158.69;5060907;28;20052;-59
2022/03/26 08:31:33;;;;;;;27.58;14.55;;;;;;;12.29;45.87;103171.00;5067124;28;20304;-61
2022/03/26 08:34:02;;;;;;;24.10;13.73;;;;;;;12.32;45.89;103161.72;5056768;28;20168;-59
2022/03/26 08:36:31;;;;;;;21.88;14.50;;;;;;;12.34;46.02;103160.50;5059260;28;20107;-60
2022/03/26 08:39:00;;;;;;;22.27;13.15;;;;;;;12.36;45.73;103160.34;5050440;28;20127;-59
2022/03/26 08:41:28;;;;;;;23.48;13.27;;;;;;;12.38;45.87;103166.38;5054770;28;20092;-60
2022/03/26 08:43:56;;;;;;;22.15;13.40;;;;;;;12.39;45.96;103163.53;5060397;28;20354;-60
2022/03/26 08:46:26;;;;;;;23.58;14.75;;;;;;;12.40;45.91;103169.75;5057370;28;20557;-60
2022/03/26 08:48:56;;;;;;;26.70;14.50;;;;;;;12.43;46.15;103168.56;5053924;28;20056;-60
2022/03/26 08:51:23;;;;;;;32.28;15.15;;;;;;;12.44;46.00;103162.16;4704491;28;10000024;-59
2022/03/26 08:53:51;;;;;;;25.17;13.70;;;;;;;12.46;45.92;103170.91;5056917;28;20065;-59
2022/03/26 08:56:20;;;;;;;28.40;14.25;;;;;;;12.45;46.28;103169.22;5062402;28;20053;-59
2022/03/26 08:58:48;;;;;;;27.52;14.70;;;;;;;12.44;46.57;103167.53;5051908;28;20084;-59
2022/03/26 09:01:16;;;;;;;28.88;14.40;;;;;;;12.44;46.47;103167.53;5063827;28;20060;-59
2022/03/26 09:03:44;;;;;;;24.88;14.82;;;;;;;12.47;46.54;103172.56;5064959;28;20063;-59
2022/03/26 09:06:12;;;;;;;27.15;15.60;;;;;;;12.48;46.53;103169.69;5064164;28;20509;-59
2022/03/26 09:08:40;;;;;;;25.58;15.15;;;;;;;12.51;46.48;103165.81;5051544;28;20056;-59
2022/03/26 09:11:08;;;;;;;28.35;14.38;;;;;;;12.52;46.52;103168.34;5061651;28;20053;-59
2022/03/26 09:13:37;;;;;;;26.35;13.65;;;;;;;12.57;46.72;103173.19;5064744;28;20045;-59
2022/03/26 09:16:05;;;;;;;28.73;15.60;;;;;;;12.58;46.72;103177.56;5065658;28;20131;-60
2022/03/26 09:18:33;;;;;;;26.83;14.25;;;;;;;12.57;46.65;103175.88;5062032;28;20131;-59
2022/03/26 09:21:01;;;;;;;26.88;14.13;;;;;;;12.53;47.00;103170.00;5064767;28;20049;-59
2022/03/26 09:23:32;;;;;;;29.25;14.48;;;;;;;12.58;47.10;103181.09;5062219;28;20045;-59
2022/03/26 09:26:04;;;;;;;28.13;15.75;;;;;;;12.60;47.21;103183.63;5063773;28;20056;-59
2022/03/26 09:28:32;;;;;;;27.48;14.10;;;;;;;12.61;47.35;103183.44;5063580;28;20410;-60
2022/03/26 09:31:01;;;;;;;25.55;14.13;;;;;;;12.62;47.20;103177.03;5064676;28;20076;-61
2022/03/26 09:33:28;;;;;;;32.85;16.05;;;;;;;12.63;47.41;103175.19;5061950;28;20110;-60
2022/03/26 09:35:56;;;;;;;28.30;14.98;;;;;;;12.63;47.64;103173.31;5062261;28;20072;-60
2022/03/26 09:38:26;;;;;;;27.55;14.73;;;;;;;12.65;47.79;103178.53;5065046;28;20049;-59
2022/03/26 09:40:55;;;;;;;25.98;14.30;;;;;;;12.67;47.74;103182.75;5062217;28;20064;-60
2022/03/26 09:43:23;;;;;;;26.40;15.13;;;;;;;12.68;47.81;103172.78;5064283;28;20053;-59
2022/03/26 09:45:51;;;;;;;32.50;15.57;;;;;;;12.71;47.82;103183.22;5063948;28;20066;-60
2022/03/26 09:48:21;;;;;;;22.70;13.75;;;;;;;12.74;47.73;103174.75;5060887;28;20113;-60
2022/03/26 09:50:49;;;;;;;32.67;14.38;;;;;;;12.78;47.70;103169.84;5064286;28;20049;-60
2022/03/26 09:53:17;;;;;;;24.88;15.18;;;;;;;12.81;47.86;103172.19;5062004;28;20048;-59
2022/03/26 09:55:45;;;;;;;27.75;14.07;;;;;;;12.83;48.14;103167.44;5063065;28;20059;-60
2022/03/26 09:58:13;;;;;;;29.05;15.07;;;;;;;12.87;48.27;103160.69;5063744;28;20049;-59
2022/03/26 10:00:41;;;;;;;37.53;16.52;;;;;;;12.90;48.08;103168.41;5064173;28;20112;-59
2022/03/26 10:03:09;;;;;;;29.98;16.10;;;;;;;12.92;48.07;103161.81;5063737;28;20060;-59
2022/03/26 10:05:38;;;;;;;28.08;15.05;;;;;;;12.93;48.27;103168.06;5053564;28;20049;-59
2022/03/26 10:08:23;;;;;;;26.67;15.73;;;;;;;12.99;47.96;103172.72;5061090;28;20080;-59
2022/03/26 10:10:52;;;;;;;31.60;15.18;;;;;;;13.01;47.98;103160.72;5061911;28;20045;-59
2022/03/26 10:13:38;;;;;;;30.40;15.73;;;;;;;13.04;47.85;103168.47;5062491;28;20112;-61
2022/03/26 10:16:08;;;;;;;31.25;15.60;;;;;;;13.08;47.81;103165.41;5065390;28;20079;-60
2022/03/26 10:18:37;;;;;;;33.03;15.75;;;;;;;13.09;47.72;103161.69;5065507;28;20053;-60
2022/03/26 10:21:12;;;;;;;32.67;16.40;;;;;;;13.11;47.73;103162.34;5064064;28;20081;-59
2022/03/26 10:23:43;;;;;;;34.25;18.95;;;;;;;13.12;47.80;103172.97;5062265;28;20112;-59
2022/03/26 10:26:12;;;;;;;29.60;16.05;;;;;;;13.14;47.73;103160.13;5063058;28;20055;-59
2022/03/26 10:28:41;;;;;;;29.23;16.50;;;;;;;13.17;47.90;103165.19;5049684;28;20087;-60
2022/03/26 10:34:08;;;;;;;30.42;16.73;;;;;;;13.26;48.26;103161.38;5065182;28;20091;-59
2022/03/26 10:36:39;;;;;;;30.00;15.68;;;;;;;13.31;48.34;103163.53;5061078;28;20052;-60
2022/03/26 10:39:13;;;;;;;31.33;15.65;;;;;;;13.34;47.94;103160.47;5062765;28;20079;-60
2022/03/26 10:41:41;;;;;;;27.45;14.93;;;;;;;13.40;48.52;103156.19;5070627;28;20079;-60
2022/03/26 10:44:11;;;;;;;23.90;14.25;;;;;;;13.46;48.31;103158.16;5060081;28;20103;-60
2022/03/26 10:46:44;;;;;;;24.52;15.55;;;;;;;13.49;48.21;103155.94;5058651;28;20059;-60
2022/03/26 10:49:13;;;;;;;29.45;13.90;;;;;;;13.54;48.00;103147.28;5062779;28;20051;-59
2022/03/26 10:51:43;;;;;;;31.25;14.23;;;;;;;13.56;48.32;103153.31;5061500;28;20116;-59
2022/03/26 10:54:13;;;;;;;23.40;13.38;;;;;;;13.59;48.05;103143.00;5063321;28;20052;-59
2022/03/26 10:56:41;;;;;;;30.55;14.30;;;;;;;13.63;47.90;103143.44;5060729;28;20104;-59
2022/03/26 10:59:09;;;;;;;25.80;14.93;;;;;;;13.68;47.94;103146.44;5061523;28;20216;-59
2022/03/26 11:01:37;;;;;;;23.13;13.45;;;;;;;13.73;47.42;103146.72;5063116;28;20060;-60
2022/03/26 11:04:05;;;;;;;25.45;13.57;;;;;;;13.74;47.76;103145.69;5054858;28;20109;-59
2022/03/26 11:06:38;;;;;;;28.55;12.98;;;;;;;13.72;48.01;103130.69;5057864;28;20053;-59
2022/03/26 11:09:08;;;;;;;19.63;12.07;;;;;;;13.84;48.32;103132.72;5048887;28;20073;-59
2022/03/26 11:11:37;;;;;;;31.73;12.93;;;;;;;13.92;48.29;103135.31;5051507;28;20119;-59
2022/03/26 11:14:10;;;;;;;20.63;12.05;;;;;;;13.96;47.90;103131.19;5060503;28;20044;-59
2022/03/26 11:16:55;;;;;;;20.73;11.73;;;;;;;14.03;48.22;103139.41;5061973;28;20080;-60
2022/03/26 11:19:34;;;;;;;22.35;12.15;;;;;;;14.09;47.18;103141.34;5065477;28;20049;-60